createdAt,value
2018-07-21T00:01:01.539Z,57.40
2018-07-21T00:02:06.713Z,57.10
2018-07-21T00:03:11.380Z,57.10
2018-07-21T00:04:16.187Z,56.80
2018-07-21T00:05:20.677Z,57.00
2018-07-21T00:06:25.650Z,56.90
2018-07-21T00:07:30.737Z,57.00
2018-07-21T00:08:35.367Z,57.20
2018-07-21T00:09:40.834Z,56.90
2018-07-21T00:10:47.093Z,57.00
2018-07-21T00:11:52.212Z,57.20
2018-07-21T00:12:56.702Z,57.20
2018-07-21T00:15:05.487Z,57.30
2018-07-21T00:16:10.164Z,57.40
2018-07-21T00:17:14.986Z,57.30
2018-07-21T00:18:20.005Z,57.40
2018-07-21T00:20:32.261Z,57.70
2018-07-21T00:21:48.750Z,58.00
2018-07-21T00:22:53.514Z,58.10
2018-07-21T00:23:58.130Z,58.00
2018-07-21T00:25:02.979Z,57.90
2018-07-21T00:26:07.748Z,58.10
2018-07-21T00:27:12.877Z,58.40
2018-07-21T00:29:22.541Z,59.10
2018-07-21T00:30:27.548Z,59.40
2018-07-21T00:31:33.013Z,59.50
2018-07-21T00:32:37.674Z,59.60
2018-07-21T00:33:42.321Z,59.70
2018-07-21T00:34:46.796Z,59.70
2018-07-21T00:35:51.465Z,59.50
2018-07-21T00:36:57.797Z,60.00
2018-07-21T00:38:02.696Z,60.00
2018-07-21T00:39:11.265Z,60.40
2018-07-21T00:40:15.752Z,60.40
2018-07-21T00:41:20.783Z,60.60
2018-07-21T00:42:25.568Z,60.70
2018-07-21T00:43:30.840Z,60.90
2018-07-21T00:44:35.466Z,61.20
2018-07-21T00:45:40.118Z,60.90
2018-07-21T00:46:44.769Z,61.80
2018-07-21T00:47:50.410Z,62.10
2018-07-21T00:48:54.937Z,62.50
2018-07-21T00:49:59.905Z,62.20
2018-07-21T00:51:05.028Z,62.30
2018-07-21T00:52:09.591Z,62.70
2018-07-21T00:53:14.213Z,62.60
2018-07-21T00:56:14.506Z,62.90
2018-07-21T00:57:19.115Z,63.20
2018-07-21T00:58:23.707Z,63.30
2018-07-21T00:59:28.260Z,63.30
2018-07-21T01:00:32.917Z,63.50
2018-07-21T01:01:38.060Z,63.50
2018-07-21T01:02:42.698Z,63.80
2018-07-21T01:03:47.753Z,64.10
2018-07-21T01:04:52.682Z,64.10
2018-07-21T01:05:57.281Z,64.10
2018-07-21T01:07:02.101Z,64.40
2018-07-21T01:08:06.789Z,64.60
2018-07-21T01:10:22.966Z,64.90
2018-07-21T01:11:27.925Z,65.10
2018-07-21T01:12:32.565Z,65.40
2018-07-21T01:13:37.204Z,65.30
2018-07-21T01:14:42.193Z,65.50
2018-07-21T01:15:46.813Z,66.30
2018-07-21T01:16:51.327Z,65.90
2018-07-21T01:17:55.877Z,65.80
2018-07-21T01:19:00.599Z,66.00
2018-07-21T01:20:08.885Z,65.90
2018-07-21T01:21:13.727Z,66.20
2018-07-21T01:22:18.278Z,66.90
2018-07-21T01:23:29.612Z,66.20
2018-07-21T01:24:34.134Z,66.20
2018-07-21T01:25:38.720Z,66.30
2018-07-21T01:26:43.219Z,66.10
2018-07-21T01:27:48.005Z,66.40
2018-07-21T01:28:52.700Z,66.30
2018-07-21T01:29:57.279Z,66.50
2018-07-21T01:31:01.869Z,67.00
2018-07-21T01:32:06.873Z,67.90
2018-07-21T01:33:12.157Z,67.20
2018-07-21T01:34:16.842Z,67.20
2018-07-21T01:35:21.818Z,67.30
2018-07-21T01:36:29.741Z,67.40
2018-07-21T01:38:04.756Z,67.50
2018-07-21T01:39:11.053Z,67.60
2018-07-21T01:40:15.699Z,67.80
2018-07-21T01:41:20.168Z,68.00
2018-07-21T01:42:28.282Z,68.50
2018-07-21T01:43:35.096Z,68.50
2018-07-21T01:44:40.338Z,68.50
2018-07-21T01:45:59.418Z,68.80
2018-07-21T01:47:05.003Z,68.80
2018-07-21T01:48:09.560Z,69.30
2018-07-21T01:49:14.197Z,69.30
2018-07-21T01:50:18.711Z,69.30
2018-07-21T01:51:23.582Z,69.50
2018-07-21T01:52:28.185Z,69.60
2018-07-21T01:53:32.688Z,69.70
2018-07-21T01:54:37.218Z,69.60
2018-07-21T01:56:46.629Z,69.60
2018-07-21T01:57:51.728Z,69.60
2018-07-21T01:58:56.455Z,70.60
2018-07-21T02:00:01.225Z,69.80
2018-07-21T02:02:10.071Z,69.80
2018-07-21T02:03:14.578Z,69.90
2018-07-21T02:04:19.690Z,70.00
2018-07-21T02:05:24.176Z,69.80
2018-07-21T02:06:28.940Z,69.90
2018-07-21T02:07:33.597Z,69.80
2018-07-21T02:08:38.175Z,70.00
2018-07-21T02:09:43.543Z,69.10
2018-07-21T02:10:48.130Z,69.60
2018-07-21T02:11:52.637Z,70.50
2018-07-21T02:12:57.357Z,69.80
2018-07-21T02:14:01.979Z,69.80
2018-07-21T02:15:07.269Z,70.00
2018-07-21T02:16:13.134Z,69.90
2018-07-21T02:17:17.713Z,69.80
2018-07-21T02:18:22.522Z,70.30
2018-07-21T02:19:27.150Z,70.20
2018-07-21T02:20:31.821Z,70.20
2018-07-21T02:21:36.431Z,70.20
2018-07-21T02:22:41.064Z,70.10
2018-07-21T02:23:45.610Z,70.00
2018-07-21T02:25:54.370Z,70.30
2018-07-21T02:26:59.431Z,70.20
2018-07-21T02:28:04.673Z,70.10
2018-07-21T02:29:09.302Z,70.10
2018-07-21T02:30:14.594Z,70.80
2018-07-21T02:31:19.250Z,69.80
2018-07-21T02:33:28.037Z,68.80
2018-07-21T02:34:32.920Z,69.40
2018-07-21T02:35:37.519Z,69.50
2018-07-21T02:36:42.763Z,69.50
2018-07-21T02:37:47.353Z,69.70
2018-07-21T02:39:57.069Z,70.00
2018-07-21T02:41:01.693Z,70.20
2018-07-21T02:42:06.394Z,70.00
2018-07-21T02:43:11.442Z,69.90
2018-07-21T02:44:16.061Z,69.70
2018-07-21T02:45:20.697Z,69.40
2018-07-21T02:46:25.426Z,69.30
2018-07-21T02:47:29.962Z,69.30
2018-07-21T02:48:34.508Z,69.30
2018-07-21T02:49:39.229Z,69.10
2018-07-21T02:50:43.938Z,68.90
2018-07-21T02:51:48.530Z,68.90
2018-07-21T02:52:53.105Z,69.10
2018-07-21T02:53:57.980Z,69.10
2018-07-21T02:55:02.584Z,68.90
2018-07-21T02:56:07.437Z,69.00
2018-07-21T02:57:12.124Z,68.90
2018-07-21T02:58:16.666Z,68.90
2018-07-21T02:59:21.454Z,68.90
2018-07-21T03:00:26.010Z,69.00
2018-07-21T03:01:30.821Z,69.30
2018-07-21T03:02:35.610Z,69.60
2018-07-21T03:03:40.151Z,69.70
2018-07-21T03:05:48.964Z,69.70
2018-07-21T03:06:53.590Z,70.00
2018-07-21T03:07:58.505Z,70.10
2018-07-21T03:09:03.681Z,70.40
2018-07-21T03:10:08.645Z,71.10
2018-07-21T03:11:13.947Z,70.50
2018-07-21T03:12:20.441Z,70.60
2018-07-21T03:13:25.223Z,70.60
2018-07-21T03:14:29.943Z,70.80
2018-07-21T03:15:34.553Z,71.30
2018-07-21T03:16:40.031Z,72.60
2018-07-21T03:18:51.571Z,71.10
2018-07-21T03:19:56.109Z,71.40
2018-07-21T03:21:02.479Z,71.60
2018-07-21T03:22:07.203Z,71.90
2018-07-21T03:23:11.894Z,71.80
2018-07-21T03:24:16.450Z,71.50
2018-07-21T03:25:20.958Z,71.40
2018-07-21T03:26:26.008Z,71.20
2018-07-21T03:27:31.622Z,71.10
2018-07-21T03:28:36.130Z,71.20
2018-07-21T03:29:40.818Z,71.30
2018-07-21T03:30:45.421Z,71.10
2018-07-21T03:31:49.972Z,71.00
2018-07-21T03:33:59.201Z,71.10
2018-07-21T03:36:08.164Z,70.80
2018-07-21T03:37:12.857Z,71.40
2018-07-21T03:38:17.652Z,71.50
2018-07-21T03:39:22.141Z,71.50
2018-07-21T03:40:26.878Z,71.80
2018-07-21T03:41:31.691Z,71.90
2018-07-21T03:42:36.187Z,71.90
2018-07-21T03:43:40.716Z,71.90
2018-07-21T03:44:45.280Z,71.90
2018-07-21T03:45:49.987Z,72.00
2018-07-21T03:46:54.997Z,72.20
2018-07-21T03:49:03.534Z,72.30
2018-07-21T03:50:12.649Z,72.20
2018-07-21T03:51:23.094Z,72.40
2018-07-21T03:52:27.864Z,72.40
2018-07-21T03:53:32.429Z,72.30
2018-07-21T03:54:37.520Z,72.40
2018-07-21T03:55:42.205Z,72.50
2018-07-21T03:56:46.968Z,72.30
2018-07-21T03:57:51.496Z,71.40
2018-07-21T03:58:56.440Z,71.10
2018-07-21T04:00:01.197Z,70.90
2018-07-21T04:01:05.738Z,70.60
2018-07-21T04:03:15.094Z,70.20
2018-07-21T04:04:19.819Z,70.10
2018-07-21T04:05:24.346Z,70.00
2018-07-21T04:06:28.933Z,69.90
2018-07-21T04:07:33.626Z,70.90
2018-07-21T04:08:38.530Z,69.50
2018-07-21T04:09:43.388Z,69.40
2018-07-21T04:10:47.986Z,69.10
2018-07-21T04:12:56.658Z,69.20
2018-07-21T04:14:02.228Z,69.10
2018-07-21T04:15:07.284Z,68.50
2018-07-21T04:16:12.188Z,68.80
2018-07-21T04:17:32.990Z,69.20
2018-07-21T04:18:37.610Z,69.30
2018-07-21T04:19:42.694Z,69.30
2018-07-21T04:20:47.455Z,69.20
2018-07-21T04:21:52.395Z,69.10
2018-07-21T04:22:57.037Z,69.20
2018-07-21T04:24:01.649Z,69.10
2018-07-21T04:25:06.628Z,69.20
2018-07-21T04:26:12.170Z,69.20
2018-07-21T04:27:16.893Z,69.10
2018-07-21T04:28:21.549Z,68.90
2018-07-21T04:29:26.925Z,68.60
2018-07-21T04:30:31.621Z,68.50
2018-07-21T04:31:36.273Z,68.00
2018-07-21T04:32:40.891Z,66.00
2018-07-21T04:33:45.527Z,66.20
2018-07-21T04:34:50.628Z,66.10
2018-07-21T04:35:55.361Z,65.10
2018-07-21T04:37:00.085Z,64.90
2018-07-21T04:38:04.806Z,64.30
2018-07-21T04:39:13.170Z,64.30
2018-07-21T04:40:18.047Z,64.50
2018-07-21T04:41:23.354Z,64.40
2018-07-21T04:42:28.929Z,64.60
2018-07-21T04:43:33.699Z,64.90
2018-07-21T04:44:38.502Z,65.40
2018-07-21T04:45:43.345Z,65.20
2018-07-21T04:46:48.168Z,65.10
2018-07-21T04:47:52.804Z,65.30
2018-07-21T04:48:57.573Z,65.50
2018-07-21T04:50:02.143Z,65.50
2018-07-21T04:51:07.806Z,65.40
2018-07-21T04:52:13.697Z,65.30
2018-07-21T04:53:18.221Z,65.10
2018-07-21T04:54:22.834Z,65.10
2018-07-21T04:55:27.328Z,65.10
2018-07-21T04:56:31.894Z,65.10
2018-07-21T04:57:36.865Z,65.30
2018-07-21T04:58:42.192Z,65.20
2018-07-21T04:59:46.969Z,65.30
2018-07-21T05:00:51.501Z,65.40
2018-07-21T05:01:56.425Z,65.40
2018-07-21T05:04:05.383Z,65.60
2018-07-21T05:05:09.916Z,63.10
2018-07-21T05:06:14.431Z,65.60
2018-07-21T05:07:19.003Z,65.50
2018-07-21T05:08:23.669Z,65.60
2018-07-21T05:09:28.576Z,65.80
2018-07-21T05:10:33.535Z,64.60
2018-07-21T05:11:39.706Z,66.70
2018-07-21T05:12:44.733Z,65.70
2018-07-21T05:13:49.237Z,65.60
2018-07-21T05:14:54.026Z,65.70
2018-07-21T05:15:58.793Z,65.50
2018-07-21T05:17:03.818Z,65.50
2018-07-21T05:18:08.372Z,65.30
2018-07-21T05:19:13.535Z,64.80
2018-07-21T05:20:18.232Z,63.10
2018-07-21T05:21:22.933Z,64.20
2018-07-21T05:22:28.961Z,64.10
2018-07-21T05:23:34.154Z,63.70
2018-07-21T05:24:39.170Z,63.50
2018-07-21T05:25:44.098Z,63.50
2018-07-21T05:26:48.700Z,63.30
2018-07-21T05:27:54.242Z,63.50
2018-07-21T05:29:15.561Z,63.50
2018-07-21T05:30:20.201Z,63.50
2018-07-21T05:31:24.789Z,63.20
2018-07-21T05:32:29.349Z,63.20
2018-07-21T05:33:34.349Z,63.40
2018-07-21T05:34:39.506Z,63.30
2018-07-21T05:35:44.025Z,63.50
2018-07-21T05:36:48.518Z,63.30
2018-07-21T05:37:53.781Z,63.30
2018-07-21T05:38:58.543Z,63.00
2018-07-21T05:40:03.093Z,63.00
2018-07-21T05:41:08.045Z,63.20
2018-07-21T05:43:19.677Z,63.40
2018-07-21T05:44:24.160Z,63.60
2018-07-21T05:45:28.800Z,63.60
2018-07-21T05:46:33.749Z,63.40
2018-07-21T05:47:38.738Z,63.50
2018-07-21T05:48:43.567Z,63.50
2018-07-21T05:49:48.149Z,63.40
2018-07-21T05:50:54.446Z,63.40
2018-07-21T05:51:59.023Z,63.40
2018-07-21T05:53:03.917Z,63.60
2018-07-21T05:54:08.898Z,63.50
2018-07-21T05:55:13.514Z,63.50
2018-07-21T05:56:18.888Z,63.60
2018-07-21T05:57:24.897Z,65.70
2018-07-21T05:58:29.846Z,67.40
2018-07-21T05:59:34.375Z,69.70
2018-07-21T06:00:43.335Z,69.00
2018-07-21T06:01:47.972Z,70.10
2018-07-21T06:02:53.979Z,70.70
2018-07-21T06:03:59.184Z,71.00
2018-07-21T06:05:03.930Z,71.50
2018-07-21T06:06:08.629Z,71.30
2018-07-21T06:07:13.754Z,71.40
2018-07-21T06:08:18.291Z,71.50
2018-07-21T06:09:23.028Z,71.70
2018-07-21T06:10:28.598Z,71.90
2018-07-21T06:11:33.175Z,72.10
2018-07-21T06:12:38.205Z,71.90
2018-07-21T06:13:43.071Z,71.90
2018-07-21T06:14:50.348Z,71.90
2018-07-21T06:15:55.284Z,72.00
2018-07-21T06:17:00.102Z,71.70
2018-07-21T06:18:05.077Z,71.70
2018-07-21T06:19:11.392Z,71.60
2018-07-21T06:20:16.378Z,71.90
2018-07-21T06:21:21.838Z,71.80
2018-07-21T06:22:26.606Z,71.90
2018-07-21T06:23:31.314Z,71.90
2018-07-21T06:24:36.308Z,72.20
2018-07-21T06:26:46.846Z,72.30
2018-07-21T06:27:52.474Z,72.60
2018-07-21T06:30:01.377Z,72.50
2018-07-21T06:31:06.458Z,72.40
2018-07-21T06:32:12.803Z,72.30
2018-07-21T06:33:18.327Z,72.40
2018-07-21T06:34:24.926Z,72.30
2018-07-21T06:35:30.077Z,72.30
2018-07-21T06:36:34.857Z,72.10
2018-07-21T06:37:39.906Z,71.90
2018-07-21T06:38:44.511Z,71.90
2018-07-21T06:39:49.087Z,72.10
2018-07-21T06:41:58.074Z,72.00
2018-07-21T06:43:02.917Z,72.30
2018-07-21T06:44:09.017Z,72.30
2018-07-21T06:45:13.568Z,71.60
2018-07-21T06:46:18.354Z,72.10
2018-07-21T06:47:23.023Z,72.20
2018-07-21T06:48:27.576Z,72.40
2018-07-21T06:49:33.076Z,71.90
2018-07-21T06:51:41.801Z,71.10
2018-07-21T06:52:46.423Z,71.00
2018-07-21T06:53:51.807Z,70.80
2018-07-21T06:54:56.419Z,70.00
2018-07-21T06:56:02.344Z,69.80
2018-07-21T06:57:07.393Z,69.90
2018-07-21T06:58:11.958Z,70.10
2018-07-21T06:59:17.357Z,69.80
2018-07-21T07:00:22.043Z,69.50
2018-07-21T07:01:26.689Z,69.50
2018-07-21T07:02:31.541Z,67.20
2018-07-21T07:04:40.496Z,69.60
2018-07-21T07:05:45.224Z,69.20
2018-07-21T07:06:50.624Z,69.00
2018-07-21T07:07:55.347Z,69.40
2018-07-21T07:09:00.146Z,68.60
2018-07-21T07:10:06.472Z,68.50
2018-07-21T07:11:11.304Z,68.60
2018-07-21T07:12:17.258Z,68.50
2018-07-21T07:13:22.671Z,70.20
2018-07-21T07:14:29.041Z,68.90
2018-07-21T07:15:36.083Z,69.00
2018-07-21T07:16:41.076Z,69.30
2018-07-21T07:17:45.650Z,68.90
2018-07-21T07:18:50.308Z,68.50
2018-07-21T07:19:55.234Z,68.60
2018-07-21T07:21:02.065Z,68.40
2018-07-21T07:22:08.542Z,68.20
2018-07-21T07:23:13.185Z,68.20
2018-07-21T07:24:19.478Z,68.10
2018-07-21T07:25:26.806Z,67.80
2018-07-21T07:26:31.824Z,67.90
2018-07-21T07:27:37.302Z,68.00
2018-07-21T07:28:41.885Z,68.20
2018-07-21T07:29:46.433Z,67.70
2018-07-21T07:30:51.487Z,67.50
2018-07-21T07:31:56.006Z,65.50
2018-07-21T07:33:01.203Z,67.90
2018-07-21T07:34:05.969Z,67.40
2018-07-21T07:35:10.566Z,67.40
2018-07-21T07:36:15.274Z,67.10
2018-07-21T07:37:23.768Z,67.50
2018-07-21T07:38:28.921Z,67.50
2018-07-21T07:40:37.709Z,66.80
2018-07-21T07:42:46.990Z,66.30
2018-07-21T07:43:51.823Z,66.00
2018-07-21T07:44:57.840Z,66.10
2018-07-21T07:46:02.580Z,66.10
2018-07-21T07:47:07.466Z,66.40
2018-07-21T07:48:11.950Z,66.30
2018-07-21T07:49:17.415Z,67.10
2018-07-21T07:50:24.967Z,66.10
2018-07-21T07:51:30.242Z,66.40
2018-07-21T07:52:34.752Z,66.40
2018-07-21T07:54:43.548Z,66.70
2018-07-21T07:55:48.388Z,66.70
2018-07-21T07:56:54.209Z,66.60
2018-07-21T07:57:58.852Z,66.90
2018-07-21T07:59:04.674Z,66.60
2018-07-21T08:00:10.743Z,66.90
2018-07-21T08:01:22.330Z,67.00
2018-07-21T08:02:27.935Z,67.10
2018-07-21T08:03:32.815Z,67.10
2018-07-21T08:04:38.421Z,67.00
2018-07-21T08:05:43.007Z,66.90
2018-07-21T08:06:48.538Z,67.00
2018-07-21T08:07:53.123Z,67.30
2018-07-21T08:08:59.450Z,67.20
2018-07-21T08:10:04.213Z,67.30
2018-07-21T08:11:09.039Z,67.40
2018-07-21T08:12:16.741Z,67.40
2018-07-21T08:13:22.662Z,67.20
2018-07-21T08:14:27.245Z,66.80
2018-07-21T08:15:32.470Z,66.50
2018-07-21T08:16:39.234Z,66.60
2018-07-21T08:17:43.723Z,66.70
2018-07-21T08:18:48.837Z,66.60
2018-07-21T08:19:53.590Z,66.60
2018-07-21T08:20:58.192Z,66.90
2018-07-21T08:22:04.186Z,66.80
2018-07-21T08:23:09.188Z,66.60
2018-07-21T08:24:14.383Z,66.50
2018-07-21T08:25:19.097Z,66.80
2018-07-21T08:26:23.937Z,66.70
2018-07-21T08:28:32.686Z,66.40
2018-07-21T08:29:37.361Z,66.20
2018-07-21T08:30:42.213Z,65.80
2018-07-21T08:31:46.916Z,65.80
2018-07-21T08:32:51.484Z,65.50
2018-07-21T08:33:57.221Z,65.20
2018-07-21T08:35:02.414Z,64.90
2018-07-21T08:36:07.496Z,64.70
2018-07-21T08:38:17.207Z,64.90
2018-07-21T08:39:22.863Z,64.80
2018-07-21T08:40:27.527Z,65.70
2018-07-21T08:41:32.779Z,65.70
2018-07-21T08:42:37.438Z,65.60
2018-07-21T08:43:42.297Z,65.20
2018-07-21T08:44:46.865Z,64.70
2018-07-21T08:48:08.294Z,63.40
2018-07-21T08:49:12.900Z,63.70
2018-07-21T08:50:17.552Z,64.20
2018-07-21T08:51:23.694Z,64.00
2018-07-21T08:52:29.140Z,64.10
2018-07-21T08:53:35.058Z,64.10
2018-07-21T08:54:39.588Z,64.00
2018-07-21T08:55:44.177Z,63.90
2018-07-21T08:56:50.798Z,64.00
2018-07-21T08:57:56.332Z,63.30
2018-07-21T08:59:01.553Z,63.20
2018-07-21T09:00:06.855Z,63.20
2018-07-21T09:01:11.504Z,63.00
2018-07-21T09:02:18.155Z,62.40
2018-07-21T09:03:23.710Z,62.40
2018-07-21T09:04:28.276Z,61.50
2018-07-21T09:05:33.000Z,60.80
2018-07-21T09:06:50.818Z,61.00
2018-07-21T09:07:55.462Z,60.90
2018-07-21T09:09:01.070Z,60.90
2018-07-21T09:10:05.879Z,60.80
2018-07-21T09:11:10.702Z,61.00
2018-07-21T09:12:16.813Z,59.20
2018-07-21T09:13:22.054Z,58.30
2018-07-21T09:14:27.673Z,58.20
2018-07-21T09:15:32.308Z,57.90
2018-07-21T09:16:37.792Z,57.50
2018-07-21T09:17:43.534Z,58.10
2018-07-21T09:18:48.277Z,58.10
2018-07-21T09:19:53.292Z,57.90
2018-07-21T09:20:58.823Z,57.40
2018-07-21T09:22:05.623Z,57.20
2018-07-21T09:23:14.288Z,57.30
2018-07-21T09:24:19.322Z,57.10
2018-07-21T09:25:29.383Z,56.90
2018-07-21T09:26:34.482Z,56.60
2018-07-21T09:27:39.513Z,56.50
2018-07-21T09:28:45.300Z,56.20
2018-07-21T09:29:51.095Z,55.80
2018-07-21T09:30:56.422Z,55.40
2018-07-21T09:32:01.645Z,55.50
2018-07-21T09:33:06.303Z,55.50
2018-07-21T09:34:16.409Z,55.40
2018-07-21T09:35:21.615Z,55.40
2018-07-21T09:36:28.200Z,55.50
2018-07-21T09:37:33.790Z,55.40
2018-07-21T09:38:39.964Z,53.90
2018-07-21T09:40:58.742Z,54.30
2018-07-21T09:42:04.510Z,54.10
2018-07-21T09:43:12.172Z,53.70
2018-07-21T09:44:26.300Z,52.70
2018-07-21T09:47:40.109Z,51.80
2018-07-21T09:48:46.786Z,52.10
2018-07-21T09:49:51.967Z,52.50
2018-07-21T09:50:57.548Z,52.80
2018-07-21T09:52:02.817Z,52.30
2018-07-21T09:53:07.397Z,52.30
2018-07-21T09:54:12.667Z,52.40
2018-07-21T09:55:18.326Z,52.30
2018-07-21T09:56:23.082Z,50.60
2018-07-21T09:58:33.938Z,49.70
2018-07-21T09:59:40.558Z,49.10
2018-07-21T10:00:50.173Z,49.60
2018-07-21T10:02:03.457Z,49.90
2018-07-21T10:03:08.700Z,49.40
2018-07-21T10:04:13.588Z,49.20
2018-07-21T10:05:18.348Z,49.30
2018-07-21T10:06:23.653Z,49.30
2018-07-21T10:07:29.179Z,49.30
2018-07-21T10:08:34.271Z,49.40
2018-07-21T10:09:39.458Z,49.10
2018-07-21T10:10:44.722Z,50.00
2018-07-21T10:11:49.371Z,50.00
2018-07-21T10:12:54.371Z,49.40
2018-07-21T10:13:59.207Z,49.30
2018-07-21T10:15:03.989Z,48.70
2018-07-21T10:17:21.518Z,49.70
2018-07-21T10:18:26.568Z,49.00
2018-07-21T10:19:31.283Z,48.00
2018-07-21T10:20:37.292Z,48.50
2018-07-21T10:21:42.251Z,49.00
2018-07-21T10:22:47.824Z,50.10
2018-07-21T10:23:52.805Z,49.30
2018-07-21T10:25:02.506Z,47.90
2018-07-21T10:26:12.766Z,49.30
2018-07-21T10:27:18.156Z,51.30
2018-07-21T10:28:32.791Z,50.60
2018-07-21T10:29:38.135Z,49.70
2018-07-21T10:30:43.006Z,49.80
2018-07-21T10:31:48.158Z,47.80
2018-07-21T10:32:53.345Z,47.10
2018-07-21T10:34:00.109Z,47.40
2018-07-21T10:35:06.870Z,48.30
2018-07-21T10:36:11.646Z,49.50
2018-07-21T10:37:16.373Z,49.80
2018-07-21T10:38:22.299Z,49.00
2018-07-21T10:41:04.480Z,48.10
2018-07-21T10:42:09.853Z,48.30
2018-07-21T10:43:15.000Z,46.60
2018-07-21T10:44:20.145Z,47.70
2018-07-21T10:45:27.471Z,47.90
2018-07-21T10:48:47.366Z,47.40
2018-07-21T10:49:52.204Z,45.50
2018-07-21T10:51:03.057Z,45.50
2018-07-21T10:53:13.318Z,44.80
2018-07-21T10:54:18.295Z,45.30
2018-07-21T10:55:26.766Z,45.00
2018-07-21T10:56:34.486Z,45.10
2018-07-21T10:57:39.756Z,44.70
2018-07-21T10:58:46.298Z,44.20
2018-07-21T10:59:53.686Z,43.50
2018-07-21T11:00:58.794Z,40.00
2018-07-21T11:02:05.698Z,37.70
2018-07-21T11:03:11.289Z,34.90
2018-07-21T11:04:16.107Z,31.80
2018-07-21T11:05:21.165Z,29.60
2018-07-21T11:06:25.761Z,27.90
2018-07-21T11:07:31.212Z,26.30
2018-07-21T11:08:39.944Z,24.90
2018-07-21T11:09:50.458Z,23.50
2018-07-21T11:10:57.142Z,22.70
2018-07-21T11:12:04.578Z,21.90
2018-07-21T11:13:09.485Z,21.20
2018-07-21T11:14:16.577Z,20.30
2018-07-21T11:15:22.766Z,19.80
2018-07-21T11:16:32.368Z,19.10
2018-07-21T11:17:42.211Z,18.80
2018-07-21T11:18:47.582Z,18.10
2018-07-21T11:19:57.282Z,17.70
2018-07-21T11:21:07.929Z,17.90
2018-07-21T11:22:13.634Z,17.30
2018-07-21T11:23:18.466Z,16.80
2018-07-21T11:24:26.755Z,16.50
2018-07-21T11:25:33.317Z,16.40
2018-07-21T11:26:53.052Z,16.20
2018-07-21T11:28:05.617Z,16.10
2018-07-21T11:29:13.569Z,15.60
2018-07-21T11:30:25.400Z,15.20
2018-07-21T11:31:33.186Z,15.40
2018-07-21T11:32:38.072Z,15.00
2018-07-21T11:33:46.819Z,15.20
2018-07-21T11:34:53.789Z,15.00
2018-07-21T11:35:59.731Z,15.00
2018-07-21T11:37:04.435Z,15.10
2018-07-21T11:38:09.715Z,15.30
2018-07-21T11:39:16.161Z,15.10
2018-07-21T11:40:21.078Z,15.20
2018-07-21T11:41:27.884Z,15.30
2018-07-21T11:42:34.219Z,15.10
2018-07-21T11:43:39.382Z,15.60
2018-07-21T11:44:43.926Z,15.40
2018-07-21T11:45:48.509Z,15.90
2018-07-21T11:48:04.204Z,15.80
2018-07-21T11:49:20.994Z,16.10
2018-07-21T11:50:27.048Z,17.10
2018-07-21T11:51:32.050Z,18.00
2018-07-21T11:52:36.612Z,18.10
2018-07-21T11:53:41.723Z,17.90
2018-07-21T11:54:46.262Z,17.90
2018-07-21T11:55:51.448Z,17.80
2018-07-21T11:58:09.813Z,17.70
2018-07-21T11:59:14.925Z,17.90
2018-07-21T12:00:20.769Z,18.40
2018-07-21T12:01:32.577Z,18.60
2018-07-21T12:02:37.280Z,19.50
2018-07-21T12:03:48.034Z,20.10
2018-07-21T12:04:53.409Z,20.80
2018-07-21T12:06:02.257Z,21.80
2018-07-21T12:07:07.227Z,22.40
2018-07-21T12:08:12.813Z,22.60
2018-07-21T12:09:18.211Z,23.20
2018-07-21T12:10:23.370Z,23.70
2018-07-21T12:11:30.211Z,24.10
2018-07-21T12:12:35.717Z,24.60
2018-07-21T12:13:40.521Z,25.00
2018-07-21T12:15:15.947Z,25.20
2018-07-21T12:16:21.610Z,25.60
2018-07-21T12:17:26.355Z,26.10
2018-07-21T12:18:31.950Z,25.40
2018-07-21T12:19:36.456Z,25.70
2018-07-21T12:20:41.511Z,25.70
2018-07-21T12:21:46.098Z,26.10
2018-07-21T12:22:51.525Z,26.70
2018-07-21T12:23:56.270Z,27.90
2018-07-21T12:25:00.924Z,27.60
2018-07-21T12:26:05.498Z,28.00
2018-07-21T12:27:10.946Z,28.20
2018-07-21T12:28:16.657Z,29.00
2018-07-21T12:30:33.043Z,28.80
2018-07-21T12:31:38.833Z,29.00
2018-07-21T12:32:43.661Z,28.70
2018-07-21T12:33:49.191Z,28.50
2018-07-21T12:34:54.121Z,28.90
2018-07-21T12:36:00.421Z,29.10
2018-07-21T12:37:05.569Z,29.20
2018-07-21T12:38:10.755Z,29.70
2018-07-21T12:39:16.450Z,29.40
2018-07-21T12:40:33.618Z,29.30
2018-07-21T12:41:39.850Z,29.20
2018-07-21T12:42:45.205Z,29.20
2018-07-21T12:43:50.647Z,28.90
2018-07-21T12:44:56.423Z,29.00
2018-07-21T12:46:01.270Z,29.70
2018-07-21T12:47:06.768Z,29.50
2018-07-21T12:48:11.693Z,29.70
2018-07-21T12:49:19.839Z,29.50
2018-07-21T12:50:26.332Z,30.00
2018-07-21T12:51:32.210Z,30.30
2018-07-21T12:52:37.952Z,29.70
2018-07-21T12:53:42.601Z,29.70
2018-07-21T12:54:47.409Z,30.70
2018-07-21T12:55:53.250Z,30.80
2018-07-21T12:56:59.740Z,29.90
2018-07-21T12:58:04.852Z,29.90
2018-07-21T12:59:11.819Z,30.20
2018-07-21T13:00:16.510Z,30.70
2018-07-21T13:01:25.971Z,30.30
2018-07-21T13:02:33.086Z,30.40
2018-07-21T13:03:39.238Z,30.80
2018-07-21T13:04:44.260Z,30.60
2018-07-21T13:05:50.622Z,30.90
2018-07-21T13:06:59.216Z,30.70
2018-07-21T13:09:13.182Z,30.70
2018-07-21T13:10:19.274Z,30.40
2018-07-21T13:11:25.785Z,30.50
2018-07-21T13:12:32.729Z,30.30
2018-07-21T13:13:39.311Z,29.20
2018-07-21T13:14:45.790Z,30.40
2018-07-21T13:15:51.300Z,29.40
2018-07-21T13:17:00.596Z,30.20
2018-07-21T13:18:06.213Z,30.70
2018-07-21T13:19:13.189Z,30.50
2018-07-21T13:20:51.856Z,30.40
2018-07-21T13:21:56.707Z,30.70
2018-07-21T13:23:02.084Z,31.30
2018-07-21T13:25:14.395Z,30.80
2018-07-21T13:26:21.342Z,30.60
2018-07-21T13:27:26.729Z,30.50
2018-07-21T13:28:33.151Z,30.60
2018-07-21T13:29:38.285Z,31.10
2018-07-21T13:30:47.994Z,31.50
2018-07-21T13:31:53.799Z,31.80
2018-07-21T13:32:58.836Z,31.00
2018-07-21T13:34:03.674Z,31.60
2018-07-21T13:35:10.639Z,31.80
2018-07-21T13:36:15.153Z,31.10
2018-07-21T13:37:21.444Z,31.30
2018-07-21T13:38:27.352Z,31.50
2018-07-21T13:39:32.200Z,30.50
2018-07-21T13:40:37.075Z,31.50
2018-07-21T13:41:42.355Z,31.90
2018-07-21T13:42:47.086Z,32.20
2018-07-21T13:43:52.199Z,32.20
2018-07-21T13:45:00.676Z,32.10
2018-07-21T13:46:06.742Z,31.80
2018-07-21T13:47:11.328Z,31.40
2018-07-21T13:48:16.162Z,30.30
2018-07-21T13:49:22.804Z,30.30
2018-07-21T13:50:29.312Z,30.10
2018-07-21T13:51:37.081Z,30.50
2018-07-21T13:52:41.772Z,30.80
2018-07-21T13:53:47.097Z,30.00
2018-07-21T13:54:52.171Z,30.10
2018-07-21T13:55:56.863Z,31.10
2018-07-21T13:57:01.403Z,30.90
2018-07-21T13:58:06.556Z,31.00
2018-07-21T13:59:11.241Z,30.60
2018-07-21T14:00:16.449Z,30.40
2018-07-21T14:01:21.693Z,30.40
2018-07-21T14:02:26.307Z,30.70
2018-07-21T14:03:31.836Z,31.20
2018-07-21T14:04:39.019Z,31.00
2018-07-21T14:05:46.671Z,30.40
2018-07-21T14:06:52.086Z,30.60
2018-07-21T14:07:58.454Z,30.90
2018-07-21T14:09:04.158Z,30.80
2018-07-21T14:10:08.756Z,30.50
2018-07-21T14:11:14.220Z,30.20
2018-07-21T14:12:18.837Z,30.30
2018-07-21T14:13:26.818Z,30.40
2018-07-21T14:14:34.797Z,30.70
2018-07-21T14:15:42.340Z,30.70
2018-07-21T14:16:49.980Z,30.90
2018-07-21T14:17:55.093Z,30.70
2018-07-21T14:19:01.365Z,31.40
2018-07-21T14:20:10.878Z,30.90
2018-07-21T14:22:23.774Z,31.30
2018-07-21T14:23:28.399Z,31.40
2018-07-21T14:24:34.498Z,30.40
2018-07-21T14:25:39.303Z,30.50
2018-07-21T14:26:44.353Z,30.50
2018-07-21T14:27:50.212Z,30.70
2018-07-21T14:31:25.285Z,31.60
2018-07-21T14:32:34.233Z,31.50
2018-07-21T14:33:45.274Z,31.60
2018-07-21T14:35:56.178Z,31.90
2018-07-21T14:37:01.265Z,32.00
2018-07-21T14:39:11.559Z,32.60
2018-07-21T14:40:16.369Z,32.50
2018-07-21T14:41:21.720Z,32.80
2018-07-21T14:42:27.208Z,33.30
2018-07-21T14:43:33.180Z,32.60
2018-07-21T14:44:38.828Z,32.90
2018-07-21T14:45:45.332Z,33.40
2018-07-21T14:46:51.119Z,33.30
2018-07-21T14:47:57.361Z,33.30
2018-07-21T14:49:02.371Z,33.80
2018-07-21T14:51:17.767Z,33.70
2018-07-21T14:52:23.783Z,34.60
2018-07-21T14:53:29.867Z,33.90
2018-07-21T14:54:35.867Z,33.90
2018-07-21T14:55:43.399Z,33.20
2018-07-21T14:56:49.199Z,33.50
2018-07-21T14:57:54.514Z,33.10
2018-07-21T14:59:01.398Z,33.60
2018-07-21T15:00:07.764Z,32.10
2018-07-21T15:01:14.270Z,32.20
2018-07-21T15:02:19.198Z,32.70
2018-07-21T15:03:27.709Z,32.60
2018-07-21T15:04:33.875Z,33.30